sensor_id;sensor_type;location;lat;lon;timestamp;P1;durP1;ratioP1;P2;durP2;ratioP2
78732;SDS011;68056;52.530;5.454;2023-02-28T00:00:08;2.92;;;0.52;;
78732;SDS011;68056;52.530;5.454;2023-02-28T00:02:38;2.30;;;0.80;;
78732;SDS011;68056;52.530;5.454;2023-02-28T00:05:06;3.55;;;1.00;;
78732;SDS011;68056;52.530;5.454;2023-02-28T00:07:33;1.55;;;0.75;;
78732;SDS011;68056;52.530;5.454;2023-02-28T00:09:58;3.67;;;1.10;;
78732;SDS011;68056;52.530;5.454;2023-02-28T00:12:24;4.43;;;0.95;;
78732;SDS011;68056;52.530;5.454;2023-02-28T00:14:50;2.63;;;0.65;;
78732;SDS011;68056;52.530;5.454;2023-02-28T00:17:16;3.95;;;1.10;;
78732;SDS011;68056;52.530;5.454;2023-02-28T00:19:46;2.00;;;0.80;;
78732;SDS011;68056;52.530;5.454;2023-02-28T00:22:13;2.95;;;1.00;;
78732;SDS011;68056;52.530;5.454;2023-02-28T00:24:39;1.85;;;0.70;;
78732;SDS011;68056;52.530;5.454;2023-02-28T00:27:05;3.10;;;0.70;;
78732;SDS011;68056;52.530;5.454;2023-02-28T00:29:30;2.10;;;0.60;;
78732;SDS011;68056;52.530;5.454;2023-02-28T00:31:56;3.03;;;0.80;;
78732;SDS011;68056;52.530;5.454;2023-02-28T00:34:21;2.47;;;1.00;;
78732;SDS011;68056;52.530;5.454;2023-02-28T00:36:47;2.47;;;1.00;;
78732;SDS011;68056;52.530;5.454;2023-02-28T00:39:16;3.08;;;0.77;;
78732;SDS011;68056;52.530;5.454;2023-02-28T00:41:41;2.53;;;0.90;;
78732;SDS011;68056;52.530;5.454;2023-02-28T00:44:07;2.72;;;0.85;;
78732;SDS011;68056;52.530;5.454;2023-02-28T00:46:32;2.55;;;1.33;;
78732;SDS011;68056;52.530;5.454;2023-02-28T00:48:58;1.50;;;0.93;;
78732;SDS011;68056;52.530;5.454;2023-02-28T00:51:24;4.55;;;1.05;;
78732;SDS011;68056;52.530;5.454;2023-02-28T00:53:49;1.20;;;0.65;;
78732;SDS011;68056;52.530;5.454;2023-02-28T00:56:15;3.00;;;0.90;;
78732;SDS011;68056;52.530;5.454;2023-02-28T00:58:40;3.03;;;1.35;;
78732;SDS011;68056;52.530;5.454;2023-02-28T01:01:06;2.83;;;1.00;;
78732;SDS011;68056;52.530;5.454;2023-02-28T01:03:32;5.45;;;1.20;;
78732;SDS011;68056;52.530;5.454;2023-02-28T01:05:58;1.58;;;1.23;;
78732;SDS011;68056;52.530;5.454;2023-02-28T01:08:24;2.08;;;0.88;;
78732;SDS011;68056;52.530;5.454;2023-02-28T01:10:51;2.05;;;0.80;;
78732;SDS011;68056;52.530;5.454;2023-02-28T01:13:16;4.20;;;1.20;;
78732;SDS011;68056;52.530;5.454;2023-02-28T01:15:52;1.75;;;0.77;;
78732;SDS011;68056;52.530;5.454;2023-02-28T01:18:20;3.45;;;1.20;;
78732;SDS011;68056;52.530;5.454;2023-02-28T01:20:46;2.00;;;0.88;;
78732;SDS011;68056;52.530;5.454;2023-02-28T01:23:12;3.20;;;0.80;;
78732;SDS011;68056;52.530;5.454;2023-02-28T01:25:38;4.93;;;1.33;;
78732;SDS011;68056;52.530;5.454;2023-02-28T01:28:04;2.95;;;0.93;;
78732;SDS011;68056;52.530;5.454;2023-02-28T01:30:30;1.40;;;0.65;;
78732;SDS011;68056;52.530;5.454;2023-02-28T01:32:56;1.63;;;0.80;;
78732;SDS011;68056;52.530;5.454;2023-02-28T01:35:22;3.17;;;0.90;;
78732;SDS011;68056;52.530;5.454;2023-02-28T01:37:48;3.60;;;1.02;;
78732;SDS011;68056;52.530;5.454;2023-02-28T01:40:14;2.55;;;0.85;;
78732;SDS011;68056;52.530;5.454;2023-02-28T01:42:39;3.17;;;1.17;;
78732;SDS011;68056;52.530;5.454;2023-02-28T01:48:04;7.25;;;2.00;;
78732;SDS011;68056;52.530;5.454;2023-02-28T01:50:34;2.88;;;1.23;;
78732;SDS011;68056;52.530;5.454;2023-02-28T01:53:04;2.83;;;1.08;;
78732;SDS011;68056;52.530;5.454;2023-02-28T01:55:31;1.73;;;1.35;;
78732;SDS011;68056;52.530;5.454;2023-02-28T01:58:00;2.53;;;0.88;;
78732;SDS011;68056;52.530;5.454;2023-02-28T02:00:28;2.53;;;1.23;;
78732;SDS011;68056;52.530;5.454;2023-02-28T02:02:58;2.42;;;1.00;;
78732;SDS011;68056;52.530;5.454;2023-02-28T02:05:30;3.75;;;0.90;;
78732;SDS011;68056;52.530;5.454;2023-02-28T02:07:58;3.35;;;1.00;;
78732;SDS011;68056;52.530;5.454;2023-02-28T02:10:41;3.42;;;1.05;;
78732;SDS011;68056;52.530;5.454;2023-02-28T02:19:03;2.55;;;1.30;;
78732;SDS011;68056;52.530;5.454;2023-02-28T02:24:16;1.35;;;1.00;;
78732;SDS011;68056;52.530;5.454;2023-02-28T02:34:55;2.92;;;1.08;;
78732;SDS011;68056;52.530;5.454;2023-02-28T02:40:19;2.80;;;1.27;;
78732;SDS011;68056;52.530;5.454;2023-02-28T02:43:08;1.73;;;0.90;;
78732;SDS011;68056;52.530;5.454;2023-02-28T02:45:50;2.70;;;1.15;;
78732;SDS011;68056;52.530;5.454;2023-02-28T02:48:25;3.83;;;1.08;;
78732;SDS011;68056;52.530;5.454;2023-02-28T02:50:55;2.55;;;1.20;;
78732;SDS011;68056;52.530;5.454;2023-02-28T02:53:33;4.82;;;1.48;;
78732;SDS011;68056;52.530;5.454;2023-02-28T02:56:02;2.30;;;1.25;;
78732;SDS011;68056;52.530;5.454;2023-02-28T02:58:35;2.67;;;1.35;;
78732;SDS011;68056;52.530;5.454;2023-02-28T03:01:07;1.80;;;1.10;;
78732;SDS011;68056;52.530;5.454;2023-02-28T03:03:39;1.83;;;1.08;;
78732;SDS011;68056;52.530;5.454;2023-02-28T03:06:05;1.63;;;0.90;;
78732;SDS011;68056;52.530;5.454;2023-02-28T03:08:34;1.63;;;1.10;;
78732;SDS011;68056;52.530;5.454;2023-02-28T03:11:05;3.17;;;1.05;;
78732;SDS011;68056;52.530;5.454;2023-02-28T03:13:42;2.63;;;1.13;;
78732;SDS011;68056;52.530;5.454;2023-02-28T03:19:01;3.45;;;1.38;;
78732;SDS011;68056;52.530;5.454;2023-02-28T03:26:45;3.38;;;1.30;;
78732;SDS011;68056;52.530;5.454;2023-02-28T03:29:20;2.33;;;1.20;;
78732;SDS011;68056;52.530;5.454;2023-02-28T03:34:37;4.07;;;1.70;;
78732;SDS011;68056;52.530;5.454;2023-02-28T03:37:10;2.63;;;1.33;;
78732;SDS011;68056;52.530;5.454;2023-02-28T03:39:43;2.90;;;1.23;;
78732;SDS011;68056;52.530;5.454;2023-02-28T03:42:15;3.38;;;1.17;;
78732;SDS011;68056;52.530;5.454;2023-02-28T03:44:47;2.90;;;1.48;;
78732;SDS011;68056;52.530;5.454;2023-02-28T03:47:19;1.73;;;1.27;;
78732;SDS011;68056;52.530;5.454;2023-02-28T03:49:54;1.83;;;1.10;;
78732;SDS011;68056;52.530;5.454;2023-02-28T03:52:24;3.55;;;1.58;;
78732;SDS011;68056;52.530;5.454;2023-02-28T03:54:54;2.85;;;1.27;;
78732;SDS011;68056;52.530;5.454;2023-02-28T03:57:32;2.38;;;1.38;;
78732;SDS011;68056;52.530;5.454;2023-02-28T04:00:06;3.75;;;1.70;;
78732;SDS011;68056;52.530;5.454;2023-02-28T04:02:36;2.63;;;1.30;;
78732;SDS011;68056;52.530;5.454;2023-02-28T04:05:02;3.22;;;1.77;;
78732;SDS011;68056;52.530;5.454;2023-02-28T04:07:30;4.15;;;1.83;;
78732;SDS011;68056;52.530;5.454;2023-02-28T04:09:56;2.22;;;1.63;;
78732;SDS011;68056;52.530;5.454;2023-02-28T04:12:22;3.53;;;1.77;;
78732;SDS011;68056;52.530;5.454;2023-02-28T04:14:49;2.25;;;1.92;;
78732;SDS011;68056;52.530;5.454;2023-02-28T04:17:15;3.90;;;1.80;;
78732;SDS011;68056;52.530;5.454;2023-02-28T04:19:41;3.03;;;1.77;;
78732;SDS011;68056;52.530;5.454;2023-02-28T04:22:07;5.70;;;2.42;;
78732;SDS011;68056;52.530;5.454;2023-02-28T04:24:33;2.00;;;1.63;;
78732;SDS011;68056;52.530;5.454;2023-02-28T04:27:00;6.07;;;2.35;;
78732;SDS011;68056;52.530;5.454;2023-02-28T04:29:30;4.65;;;1.98;;
78732;SDS011;68056;52.530;5.454;2023-02-28T04:31:57;3.30;;;1.70;;
78732;SDS011;68056;52.530;5.454;2023-02-28T04:34:24;4.72;;;2.47;;
78732;SDS011;68056;52.530;5.454;2023-02-28T04:36:55;2.55;;;1.80;;
78732;SDS011;68056;52.530;5.454;2023-02-28T04:39:21;3.92;;;2.47;;
78732;SDS011;68056;52.530;5.454;2023-02-28T04:41:48;6.47;;;2.35;;
78732;SDS011;68056;52.530;5.454;2023-02-28T04:44:13;3.13;;;2.42;;
78732;SDS011;68056;52.530;5.454;2023-02-28T04:46:40;4.82;;;2.25;;
78732;SDS011;68056;52.530;5.454;2023-02-28T04:49:06;4.65;;;2.40;;
78732;SDS011;68056;52.530;5.454;2023-02-28T04:51:32;4.57;;;2.70;;
78732;SDS011;68056;52.530;5.454;2023-02-28T04:53:58;6.50;;;3.28;;
78732;SDS011;68056;52.530;5.454;2023-02-28T04:56:24;4.63;;;3.10;;
78732;SDS011;68056;52.530;5.454;2023-02-28T04:58:49;6.43;;;3.45;;
78732;SDS011;68056;52.530;5.454;2023-02-28T05:01:22;4.50;;;3.00;;
78732;SDS011;68056;52.530;5.454;2023-02-28T05:03:49;5.43;;;2.88;;
78732;SDS011;68056;52.530;5.454;2023-02-28T05:06:16;3.85;;;2.67;;
78732;SDS011;68056;52.530;5.454;2023-02-28T05:08:45;3.03;;;2.03;;
78732;SDS011;68056;52.530;5.454;2023-02-28T05:11:18;5.28;;;2.72;;
78732;SDS011;68056;52.530;5.454;2023-02-28T05:13:46;5.85;;;2.42;;
78732;SDS011;68056;52.530;5.454;2023-02-28T05:16:11;5.07;;;2.92;;
78732;SDS011;68056;52.530;5.454;2023-02-28T05:18:37;5.50;;;3.40;;
78732;SDS011;68056;52.530;5.454;2023-02-28T05:21:04;6.13;;;4.43;;
78732;SDS011;68056;52.530;5.454;2023-02-28T05:23:29;9.25;;;4.05;;
78732;SDS011;68056;52.530;5.454;2023-02-28T05:25:55;5.00;;;3.25;;
78732;SDS011;68056;52.530;5.454;2023-02-28T05:28:21;7.38;;;3.60;;
78732;SDS011;68056;52.530;5.454;2023-02-28T05:30:47;4.80;;;3.47;;
78732;SDS011;68056;52.530;5.454;2023-02-28T05:33:12;12.57;;;4.63;;
78732;SDS011;68056;52.530;5.454;2023-02-28T05:35:39;7.75;;;4.10;;
78732;SDS011;68056;52.530;5.454;2023-02-28T05:38:09;8.68;;;4.50;;
78732;SDS011;68056;52.530;5.454;2023-02-28T05:40:37;6.53;;;4.00;;
78732;SDS011;68056;52.530;5.454;2023-02-28T05:43:04;6.88;;;4.70;;
78732;SDS011;68056;52.530;5.454;2023-02-28T05:45:29;7.15;;;4.05;;
78732;SDS011;68056;52.530;5.454;2023-02-28T05:47:55;7.43;;;4.78;;
78732;SDS011;68056;52.530;5.454;2023-02-28T05:50:21;9.52;;;5.28;;
78732;SDS011;68056;52.530;5.454;2023-02-28T05:52:50;8.55;;;4.80;;
78732;SDS011;68056;52.530;5.454;2023-02-28T05:55:16;10.13;;;5.05;;
78732;SDS011;68056;52.530;5.454;2023-02-28T05:57:41;6.38;;;4.32;;
78732;SDS011;68056;52.530;5.454;2023-02-28T06:00:07;6.38;;;4.20;;
78732;SDS011;68056;52.530;5.454;2023-02-28T06:02:34;8.35;;;4.57;;
78732;SDS011;68056;52.530;5.454;2023-02-28T06:04:59;6.25;;;3.95;;
78732;SDS011;68056;52.530;5.454;2023-02-28T06:07:25;6.35;;;4.05;;
78732;SDS011;68056;52.530;5.454;2023-02-28T06:09:50;5.93;;;4.38;;
78732;SDS011;68056;52.530;5.454;2023-02-28T06:12:16;6.35;;;4.13;;
78732;SDS011;68056;52.530;5.454;2023-02-28T06:14:42;10.55;;;5.20;;
78732;SDS011;68056;52.530;5.454;2023-02-28T06:17:08;6.75;;;4.03;;
78732;SDS011;68056;52.530;5.454;2023-02-28T06:19:34;6.63;;;3.88;;
78732;SDS011;68056;52.530;5.454;2023-02-28T06:22:03;7.35;;;3.72;;
78732;SDS011;68056;52.530;5.454;2023-02-28T06:24:29;5.47;;;2.88;;
78732;SDS011;68056;52.530;5.454;2023-02-28T06:26:56;3.00;;;2.33;;
78732;SDS011;68056;52.530;5.454;2023-02-28T06:29:24;5.03;;;2.30;;
78732;SDS011;68056;52.530;5.454;2023-02-28T06:31:50;2.70;;;2.28;;
78732;SDS011;68056;52.530;5.454;2023-02-28T06:34:15;4.13;;;2.38;;
78732;SDS011;68056;52.530;5.454;2023-02-28T06:36:41;4.03;;;2.10;;
78732;SDS011;68056;52.530;5.454;2023-02-28T06:39:08;3.90;;;1.98;;
78732;SDS011;68056;52.530;5.454;2023-02-28T06:41:34;3.00;;;1.88;;
78732;SDS011;68056;52.530;5.454;2023-02-28T06:44:03;1.83;;;1.70;;
78732;SDS011;68056;52.530;5.454;2023-02-28T06:46:40;4.07;;;2.03;;
78732;SDS011;68056;52.530;5.454;2023-02-28T06:49:06;3.25;;;1.95;;
78732;SDS011;68056;52.530;5.454;2023-02-28T06:51:39;5.43;;;2.22;;
78732;SDS011;68056;52.530;5.454;2023-02-28T06:54:06;4.10;;;2.83;;
78732;SDS011;68056;52.530;5.454;2023-02-28T06:56:34;4.15;;;1.77;;
78732;SDS011;68056;52.530;5.454;2023-02-28T06:58:59;4.60;;;2.17;;
78732;SDS011;68056;52.530;5.454;2023-02-28T07:01:25;2.25;;;1.90;;
78732;SDS011;68056;52.530;5.454;2023-02-28T07:03:53;2.58;;;1.83;;
78732;SDS011;68056;52.530;5.454;2023-02-28T07:06:19;2.03;;;1.63;;
78732;SDS011;68056;52.530;5.454;2023-02-28T07:08:47;3.42;;;1.95;;
78732;SDS011;68056;52.530;5.454;2023-02-28T07:11:15;3.90;;;2.60;;
78732;SDS011;68056;52.530;5.454;2023-02-28T07:13:41;4.82;;;2.92;;
78732;SDS011;68056;52.530;5.454;2023-02-28T07:16:08;3.55;;;2.70;;
78732;SDS011;68056;52.530;5.454;2023-02-28T07:18:37;2.47;;;1.85;;
78732;SDS011;68056;52.530;5.454;2023-02-28T07:21:03;3.10;;;2.42;;
78732;SDS011;68056;52.530;5.454;2023-02-28T07:23:30;4.53;;;2.50;;
78732;SDS011;68056;52.530;5.454;2023-02-28T07:25:56;2.67;;;2.45;;
78732;SDS011;68056;52.530;5.454;2023-02-28T07:28:22;2.60;;;2.30;;
78732;SDS011;68056;52.530;5.454;2023-02-28T07:30:48;2.78;;;1.63;;
78732;SDS011;68056;52.530;5.454;2023-02-28T07:33:14;3.13;;;2.03;;
78732;SDS011;68056;52.530;5.454;2023-02-28T07:35:39;4.47;;;1.98;;
78732;SDS011;68056;52.530;5.454;2023-02-28T07:38:05;2.45;;;1.70;;
78732;SDS011;68056;52.530;5.454;2023-02-28T07:40:32;2.35;;;1.80;;
78732;SDS011;68056;52.530;5.454;2023-02-28T07:42:59;4.38;;;2.30;;
78732;SDS011;68056;52.530;5.454;2023-02-28T07:45:25;2.90;;;2.17;;
78732;SDS011;68056;52.530;5.454;2023-02-28T07:47:53;2.30;;;2.08;;
78732;SDS011;68056;52.530;5.454;2023-02-28T07:50:25;1.98;;;1.67;;
78732;SDS011;68056;52.530;5.454;2023-02-28T07:52:59;3.00;;;1.92;;
78732;SDS011;68056;52.530;5.454;2023-02-28T07:55:25;1.98;;;1.80;;
78732;SDS011;68056;52.530;5.454;2023-02-28T07:57:51;2.20;;;1.65;;
78732;SDS011;68056;52.530;5.454;2023-02-28T08:00:16;2.90;;;1.90;;
78732;SDS011;68056;52.530;5.454;2023-02-28T08:02:42;2.58;;;2.00;;
78732;SDS011;68056;52.530;5.454;2023-02-28T08:05:08;2.45;;;1.45;;
78732;SDS011;68056;52.530;5.454;2023-02-28T08:07:34;2.50;;;1.60;;
78732;SDS011;68056;52.530;5.454;2023-02-28T08:10:00;2.55;;;1.80;;
78732;SDS011;68056;52.530;5.454;2023-02-28T08:12:25;3.15;;;1.83;;
78732;SDS011;68056;52.530;5.454;2023-02-28T08:14:51;5.22;;;2.20;;
78732;SDS011;68056;52.530;5.454;2023-02-28T08:17:17;3.40;;;1.90;;
78732;SDS011;68056;52.530;5.454;2023-02-28T08:19:45;1.73;;;1.55;;
78732;SDS011;68056;52.530;5.454;2023-02-28T08:22:11;2.00;;;1.63;;
78732;SDS011;68056;52.530;5.454;2023-02-28T08:24:36;2.13;;;1.90;;
78732;SDS011;68056;52.530;5.454;2023-02-28T08:27:02;3.95;;;1.83;;
78732;SDS011;68056;52.530;5.454;2023-02-28T08:29:31;1.90;;;1.70;;
78732;SDS011;68056;52.530;5.454;2023-02-28T08:31:56;2.30;;;1.98;;
78732;SDS011;68056;52.530;5.454;2023-02-28T08:34:23;2.70;;;2.28;;
78732;SDS011;68056;52.530;5.454;2023-02-28T08:36:49;2.22;;;1.90;;
78732;SDS011;68056;52.530;5.454;2023-02-28T08:39:14;2.67;;;1.75;;
78732;SDS011;68056;52.530;5.454;2023-02-28T08:41:41;1.80;;;1.65;;
78732;SDS011;68056;52.530;5.454;2023-02-28T08:44:07;2.60;;;1.60;;
78732;SDS011;68056;52.530;5.454;2023-02-28T08:46:33;1.70;;;1.60;;
78732;SDS011;68056;52.530;5.454;2023-02-28T08:48:58;2.15;;;1.83;;
78732;SDS011;68056;52.530;5.454;2023-02-28T08:51:26;4.97;;;2.08;;
78732;SDS011;68056;52.530;5.454;2023-02-28T08:53:53;2.92;;;2.20;;
78732;SDS011;68056;52.530;5.454;2023-02-28T08:56:26;2.60;;;2.00;;
78732;SDS011;68056;52.530;5.454;2023-02-28T08:58:53;3.63;;;1.77;;
78732;SDS011;68056;52.530;5.454;2023-02-28T09:01:22;3.97;;;2.20;;
78732;SDS011;68056;52.530;5.454;2023-02-28T09:03:50;3.20;;;2.03;;
78732;SDS011;68056;52.530;5.454;2023-02-28T09:06:17;2.47;;;1.48;;
78732;SDS011;68056;52.530;5.454;2023-02-28T09:08:44;3.15;;;2.13;;
78732;SDS011;68056;52.530;5.454;2023-02-28T09:11:10;4.53;;;1.88;;
78732;SDS011;68056;52.530;5.454;2023-02-28T09:13:36;2.22;;;2.03;;
78732;SDS011;68056;52.530;5.454;2023-02-28T09:16:03;2.05;;;1.65;;
78732;SDS011;68056;52.530;5.454;2023-02-28T09:18:30;4.72;;;2.22;;
78732;SDS011;68056;52.530;5.454;2023-02-28T09:20:56;3.55;;;2.33;;
78732;SDS011;68056;52.530;5.454;2023-02-28T09:23:22;4.88;;;2.63;;
78732;SDS011;68056;52.530;5.454;2023-02-28T09:25:50;5.15;;;2.75;;
78732;SDS011;68056;52.530;5.454;2023-02-28T09:28:17;4.53;;;2.28;;
78732;SDS011;68056;52.530;5.454;2023-02-28T09:30:44;3.78;;;2.88;;
78732;SDS011;68056;52.530;5.454;2023-02-28T09:33:11;4.10;;;2.58;;
78732;SDS011;68056;52.530;5.454;2023-02-28T09:35:38;3.25;;;2.58;;
78732;SDS011;68056;52.530;5.454;2023-02-28T09:38:04;5.47;;;3.53;;
78732;SDS011;68056;52.530;5.454;2023-02-28T09:40:30;2.58;;;2.20;;
78732;SDS011;68056;52.530;5.454;2023-02-28T09:42:56;3.05;;;2.35;;
78732;SDS011;68056;52.530;5.454;2023-02-28T09:45:24;8.45;;;3.35;;
78732;SDS011;68056;52.530;5.454;2023-02-28T09:48:03;5.32;;;2.58;;
78732;SDS011;68056;52.530;5.454;2023-02-28T09:50:40;2.72;;;2.25;;
78732;SDS011;68056;52.530;5.454;2023-02-28T09:55:54;3.72;;;2.17;;
78732;SDS011;68056;52.530;5.454;2023-02-28T10:01:18;5.20;;;2.45;;
78732;SDS011;68056;52.530;5.454;2023-02-28T10:06:54;4.20;;;1.95;;
78732;SDS011;68056;52.530;5.454;2023-02-28T10:09:30;2.40;;;1.60;;
78732;SDS011;68056;52.530;5.454;2023-02-28T10:12:04;3.05;;;2.20;;
78732;SDS011;68056;52.530;5.454;2023-02-28T10:14:33;3.45;;;2.05;;
78732;SDS011;68056;52.530;5.454;2023-02-28T10:20:14;3.20;;;1.67;;
78732;SDS011;68056;52.530;5.454;2023-02-28T10:22:57;2.53;;;1.50;;
78732;SDS011;68056;52.530;5.454;2023-02-28T10:25:34;2.38;;;1.58;;
78732;SDS011;68056;52.530;5.454;2023-02-28T10:28:08;1.83;;;1.48;;
78732;SDS011;68056;52.530;5.454;2023-02-28T10:30:48;1.75;;;1.25;;
78732;SDS011;68056;52.530;5.454;2023-02-28T10:33:17;1.92;;;1.65;;
78732;SDS011;68056;52.530;5.454;2023-02-28T10:35:47;2.90;;;1.95;;
78732;SDS011;68056;52.530;5.454;2023-02-28T10:38:15;2.10;;;1.30;;
78732;SDS011;68056;52.530;5.454;2023-02-28T10:40:43;3.30;;;1.38;;
78732;SDS011;68056;52.530;5.454;2023-02-28T10:45:39;1.85;;;1.38;;
78732;SDS011;68056;52.530;5.454;2023-02-28T11:01:19;2.47;;;1.65;;
78732;SDS011;68056;52.530;5.454;2023-02-28T11:03:47;2.50;;;1.25;;
78732;SDS011;68056;52.530;5.454;2023-02-28T11:06:17;3.00;;;1.27;;
78732;SDS011;68056;52.530;5.454;2023-02-28T11:11:16;2.22;;;1.50;;
78732;SDS011;68056;52.530;5.454;2023-02-28T11:13:42;1.50;;;1.30;;
78732;SDS011;68056;52.530;5.454;2023-02-28T11:16:10;2.17;;;1.73;;
78732;SDS011;68056;52.530;5.454;2023-02-28T11:21:16;1.95;;;1.30;;
78732;SDS011;68056;52.530;5.454;2023-02-28T11:23:49;2.70;;;1.60;;
78732;SDS011;68056;52.530;5.454;2023-02-28T11:26:34;2.55;;;1.67;;
78732;SDS011;68056;52.530;5.454;2023-02-28T11:29:12;1.67;;;1.20;;
78732;SDS011;68056;52.530;5.454;2023-02-28T11:34:43;3.15;;;2.20;;
78732;SDS011;68056;52.530;5.454;2023-02-28T11:37:13;1.40;;;1.30;;
78732;SDS011;68056;52.530;5.454;2023-02-28T11:39:42;1.80;;;1.60;;
78732;SDS011;68056;52.530;5.454;2023-02-28T11:53:12;2.45;;;1.30;;
78732;SDS011;68056;52.530;5.454;2023-02-28T11:55:44;2.78;;;1.35;;
78732;SDS011;68056;52.530;5.454;2023-02-28T11:58:20;1.40;;;1.30;;
78732;SDS011;68056;52.530;5.454;2023-02-28T12:01:11;1.52;;;1.10;;
78732;SDS011;68056;52.530;5.454;2023-02-28T12:09:02;1.80;;;1.25;;
78732;SDS011;68056;52.530;5.454;2023-02-28T12:11:52;1.83;;;1.55;;
78732;SDS011;68056;52.530;5.454;2023-02-28T12:22:41;2.10;;;1.85;;
78732;SDS011;68056;52.530;5.454;2023-02-28T12:28:16;1.77;;;1.45;;
78732;SDS011;68056;52.530;5.454;2023-02-28T12:30:52;2.05;;;1.40;;
78732;SDS011;68056;52.530;5.454;2023-02-28T12:33:22;1.58;;;1.40;;
78732;SDS011;68056;52.530;5.454;2023-02-28T12:35:54;1.45;;;1.10;;
78732;SDS011;68056;52.530;5.454;2023-02-28T12:38:23;1.40;;;1.08;;
78732;SDS011;68056;52.530;5.454;2023-02-28T12:41:02;2.33;;;1.23;;
78732;SDS011;68056;52.530;5.454;2023-02-28T12:43:34;1.77;;;1.23;;
78732;SDS011;68056;52.530;5.454;2023-02-28T12:46:06;3.03;;;1.50;;
78732;SDS011;68056;52.530;5.454;2023-02-28T12:48:57;1.80;;;1.20;;
78732;SDS011;68056;52.530;5.454;2023-02-28T12:51:24;1.85;;;1.30;;
78732;SDS011;68056;52.530;5.454;2023-02-28T12:59:38;1.80;;;1.50;;
78732;SDS011;68056;52.530;5.454;2023-02-28T13:08:10;2.30;;;1.60;;
78732;SDS011;68056;52.530;5.454;2023-02-28T13:10:44;2.55;;;2.00;;
78732;SDS011;68056;52.530;5.454;2023-02-28T13:13:16;2.58;;;1.88;;
78732;SDS011;68056;52.530;5.454;2023-02-28T13:18:39;2.67;;;1.98;;
78732;SDS011;68056;52.530;5.454;2023-02-28T13:21:09;1.60;;;1.48;;
78732;SDS011;68056;52.530;5.454;2023-02-28T13:26:20;4.18;;;1.90;;
78732;SDS011;68056;52.530;5.454;2023-02-28T13:31:26;3.05;;;1.80;;
78732;SDS011;68056;52.530;5.454;2023-02-28T13:36:30;2.10;;;1.80;;
78732;SDS011;68056;52.530;5.454;2023-02-28T13:38:57;2.45;;;1.90;;
78732;SDS011;68056;52.530;5.454;2023-02-28T13:44:04;1.90;;;1.60;;
78732;SDS011;68056;52.530;5.454;2023-02-28T13:46:32;2.30;;;1.40;;
78732;SDS011;68056;52.530;5.454;2023-02-28T13:49:31;1.60;;;1.20;;
78732;SDS011;68056;52.530;5.454;2023-02-28T14:03:12;1.67;;;1.48;;
78732;SDS011;68056;52.530;5.454;2023-02-28T14:06:07;1.35;;;1.05;;
78732;SDS011;68056;52.530;5.454;2023-02-28T14:08:43;2.08;;;1.35;;
78732;SDS011;68056;52.530;5.454;2023-02-28T14:11:24;1.50;;;1.40;;
78732;SDS011;68056;52.530;5.454;2023-02-28T14:13:53;2.47;;;1.50;;
78732;SDS011;68056;52.530;5.454;2023-02-28T14:16:26;1.60;;;1.50;;
78732;SDS011;68056;52.530;5.454;2023-02-28T14:21:35;2.20;;;1.33;;
78732;SDS011;68056;52.530;5.454;2023-02-28T14:29:54;1.80;;;1.55;;
78732;SDS011;68056;52.530;5.454;2023-02-28T14:35:28;2.15;;;1.23;;
78732;SDS011;68056;52.530;5.454;2023-02-28T14:38:17;1.50;;;1.40;;
78732;SDS011;68056;52.530;5.454;2023-02-28T14:40:46;1.50;;;1.35;;
78732;SDS011;68056;52.530;5.454;2023-02-28T14:43:21;1.60;;;1.30;;
78732;SDS011;68056;52.530;5.454;2023-02-28T14:45:52;3.03;;;1.77;;
78732;SDS011;68056;52.530;5.454;2023-02-28T14:48:20;2.22;;;2.03;;
78732;SDS011;68056;52.530;5.454;2023-02-28T14:50:48;2.10;;;1.60;;
78732;SDS011;68056;52.530;5.454;2023-02-28T14:53:18;1.95;;;1.70;;
78732;SDS011;68056;52.530;5.454;2023-02-28T14:55:46;2.33;;;2.03;;
78732;SDS011;68056;52.530;5.454;2023-02-28T14:58:19;3.45;;;2.10;;
78732;SDS011;68056;52.530;5.454;2023-02-28T15:00:52;3.05;;;2.03;;
78732;SDS011;68056;52.530;5.454;2023-02-28T15:05:55;2.85;;;2.03;;
78732;SDS011;68056;52.530;5.454;2023-02-28T15:08:23;3.15;;;2.03;;
78732;SDS011;68056;52.530;5.454;2023-02-28T15:10:53;2.70;;;1.80;;
78732;SDS011;68056;52.530;5.454;2023-02-28T15:13:19;2.47;;;1.60;;
78732;SDS011;68056;52.530;5.454;2023-02-28T15:15:51;3.30;;;2.00;;
78732;SDS011;68056;52.530;5.454;2023-02-28T15:18:31;2.92;;;1.92;;
78732;SDS011;68056;52.530;5.454;2023-02-28T15:21:08;2.25;;;1.83;;
78732;SDS011;68056;52.530;5.454;2023-02-28T15:23:38;2.58;;;1.60;;
78732;SDS011;68056;52.530;5.454;2023-02-28T15:26:06;2.42;;;2.22;;
78732;SDS011;68056;52.530;5.454;2023-02-28T15:28:35;3.92;;;2.13;;
78732;SDS011;68056;52.530;5.454;2023-02-28T15:31:01;2.17;;;1.98;;
78732;SDS011;68056;52.530;5.454;2023-02-28T15:33:47;2.65;;;1.90;;
78732;SDS011;68056;52.530;5.454;2023-02-28T15:36:17;2.88;;;1.98;;
78732;SDS011;68056;52.530;5.454;2023-02-28T15:38:45;2.35;;;1.98;;
78732;SDS011;68056;52.530;5.454;2023-02-28T15:41:37;2.47;;;1.67;;
78732;SDS011;68056;52.530;5.454;2023-02-28T15:47:01;3.22;;;2.10;;
78732;SDS011;68056;52.530;5.454;2023-02-28T15:49:39;1.83;;;1.70;;
78732;SDS011;68056;52.530;5.454;2023-02-28T15:52:12;3.70;;;2.13;;
78732;SDS011;68056;52.530;5.454;2023-02-28T15:54:44;3.92;;;2.30;;
78732;SDS011;68056;52.530;5.454;2023-02-28T15:57:13;2.63;;;1.90;;
78732;SDS011;68056;52.530;5.454;2023-02-28T15:59:49;3.70;;;2.38;;
78732;SDS011;68056;52.530;5.454;2023-02-28T16:02:32;3.25;;;2.17;;
78732;SDS011;68056;52.530;5.454;2023-02-28T16:07:34;3.97;;;2.42;;
78732;SDS011;68056;52.530;5.454;2023-02-28T16:10:04;2.05;;;1.80;;
78732;SDS011;68056;52.530;5.454;2023-02-28T16:14:59;2.75;;;2.15;;
78732;SDS011;68056;52.530;5.454;2023-02-28T16:17:28;2.40;;;1.90;;
78732;SDS011;68056;52.530;5.454;2023-02-28T16:19:56;2.38;;;2.08;;
78732;SDS011;68056;52.530;5.454;2023-02-28T16:22:21;3.55;;;2.38;;
78732;SDS011;68056;52.530;5.454;2023-02-28T16:24:47;3.33;;;2.28;;
78732;SDS011;68056;52.530;5.454;2023-02-28T16:27:46;4.20;;;2.42;;
78732;SDS011;68056;52.530;5.454;2023-02-28T16:30:05;2.80;;;2.30;;
78732;SDS011;68056;52.530;5.454;2023-02-28T16:32:35;3.38;;;2.35;;
78732;SDS011;68056;52.530;5.454;2023-02-28T16:35:01;3.05;;;2.22;;
78732;SDS011;68056;52.530;5.454;2023-02-28T16:37:27;3.10;;;2.13;;
78732;SDS011;68056;52.530;5.454;2023-02-28T16:39:53;3.75;;;2.60;;
78732;SDS011;68056;52.530;5.454;2023-02-28T16:42:23;3.33;;;2.65;;
78732;SDS011;68056;52.530;5.454;2023-02-28T16:44:51;5.47;;;2.10;;
78732;SDS011;68056;52.530;5.454;2023-02-28T16:47:17;2.92;;;2.15;;
78732;SDS011;68056;52.530;5.454;2023-02-28T16:49:43;3.35;;;2.50;;
78732;SDS011;68056;52.530;5.454;2023-02-28T16:52:09;3.22;;;1.95;;
78732;SDS011;68056;52.530;5.454;2023-02-28T16:54:36;2.80;;;2.40;;
78732;SDS011;68056;52.530;5.454;2023-02-28T16:57:03;3.92;;;3.35;;
78732;SDS011;68056;52.530;5.454;2023-02-28T16:59:30;4.30;;;2.10;;
78732;SDS011;68056;52.530;5.454;2023-02-28T17:01:57;3.05;;;2.42;;
78732;SDS011;68056;52.530;5.454;2023-02-28T17:04:23;2.33;;;2.13;;
78732;SDS011;68056;52.530;5.454;2023-02-28T17:06:50;3.42;;;2.20;;
78732;SDS011;68056;52.530;5.454;2023-02-28T17:09:16;4.32;;;2.25;;
78732;SDS011;68056;52.530;5.454;2023-02-28T17:11:44;2.92;;;2.13;;
78732;SDS011;68056;52.530;5.454;2023-02-28T17:14:11;4.18;;;2.05;;
78732;SDS011;68056;52.530;5.454;2023-02-28T17:16:37;3.17;;;2.05;;
78732;SDS011;68056;52.530;5.454;2023-02-28T17:19:13;4.40;;;2.10;;
78732;SDS011;68056;52.530;5.454;2023-02-28T17:21:40;3.08;;;2.17;;
78732;SDS011;68056;52.530;5.454;2023-02-28T17:24:07;3.13;;;2.00;;
78732;SDS011;68056;52.530;5.454;2023-02-28T17:26:33;3.03;;;2.20;;
78732;SDS011;68056;52.530;5.454;2023-02-28T17:28:59;4.03;;;1.92;;
78732;SDS011;68056;52.530;5.454;2023-02-28T17:31:25;3.10;;;2.00;;
78732;SDS011;68056;52.530;5.454;2023-02-28T17:33:51;2.63;;;1.90;;